Nearby METAR Reports

 

EBAW - Antwerp/Deurne, Belgium
Distance from station: SSE 9km
Actualizado: 24/07/2024 02:50
Encoberto
Encoberto
 Vento de W
Vento: W 13 km/h
Temperatura: 17°C
Ponto de Orvalho: 14°C
Humidade: 83%
Barómetro: 1021 hPa
Clouds: Encoberto
Visibility: 10 km
Cloud details: Parcialmente nublado 457 m
Parcialmente nublado 549 m
Encoberto 975 m
2024/07/24 00:50 EBAW 240050Z AUTO 27007KT 9999 // SCT015/// SCT018/// OVC032/// 17/14 Q1021
EHWO - Woensdrecht Rnla, Netherlands
Distance from station: NNW 20km
Actualizado: 24/07/2024 02:25
Encoberto
Encoberto
 Vento de WNW
Vento: WNW 9 km/h
Temperatura: 16°C
Ponto de Orvalho: 14°C
Humidade: 88%
Barómetro: 1021 hPa
Clouds: Encoberto
Visibility: 10 km
Cloud details: Few Clouds 335 m
Parcialmente nublado 427 m
Encoberto 1219 m
2024/07/24 00:25 EHWO 240025Z AUTO 29005KT 250V340 9999 FEW011 SCT014 OVC040 16/14 Q1021 BLU
 
EBBR - Brussels Nationa, Belgium
Distance from station: S 43km
Actualizado: 24/07/2024 02:50
Parcialmente nublado
Parcialmente nublado
 Vento de W
Vento: W 7 km/h
Temperatura: 15°C
Ponto de Orvalho: 13°C
Humidade: 88%
Barómetro: 1021 hPa
Clouds: Parcialmente nublado
Visibility: 10 km
Cloud details: Parcialmente nublado 1067 m
2024/07/24 00:50 EBBR 240050Z 28004KT 9999 SCT035 15/13 Q1021 NOSIG
EHGR - Gilze-Rijen Rnla, Netherlands
Distance from station: NE 47km
Actualizado: 24/07/2024 02:25
Encoberto
Encoberto
 Vento de W
Vento: W 6 km/h
Temperatura: 16°C
Ponto de Orvalho: 14°C
Humidade: 88%
Barómetro: 1020 hPa
Clouds: Encoberto
Visibility: 10 km
Cloud details: Parcialmente nublado 1341 m
Encoberto 7620 m
2024/07/24 00:25 EHGR 240025Z AUTO 26003KT 9999 SCT044 OVC250 16/14 Q1020 BLU
 
EBDT - Schaffen, Belgium
Distance from station: ESE 54km
Actualizado: 23/07/2024 15:25
NOT Current

 Vento de W
Vento: W 19 km/h
Temperatura: 22°C
Ponto de Orvalho: 14°C
Humidade: 61%
Barómetro: 1016 hPa
Visibility: 10 km
2024/07/23 13:25 EBDT 231325Z AUTO 26010KT 9999 /// 22/14 Q1016 BLU
EHFS - Vlissingen, Netherlands
Distance from station: WNW 60km
Actualizado: 24/07/2024 02:25
Parcialmente nublado
Parcialmente nublado
 Vento de WNW
Vento: WNW 11 km/h
Temperatura: 16°C
Ponto de Orvalho: 14°C
Humidade: 88%
Barómetro: 1021 hPa
Clouds: Parcialmente nublado
Visibility: 10 km
2024/07/24 00:25 EHFS 240025Z AUTO 30006KT 9999 NSC 16/14 Q1021
 
EBBE - Beauvechain (baf, Belgium
Distance from station: SSE 64km
Actualizado: 24/07/2024 02:45
Muito nublado
Muito nublado
 Vento de W
Vento: W 7 km/h
Temperatura: 15°C
Ponto de Orvalho: 14°C
Humidade: 94%
Barómetro: 1021 hPa
Clouds: Muito nublado
Visibility: 10 km
Cloud details: Few Clouds 305 m
Muito nublado 914 m
2024/07/24 00:45 EBBE 240045Z AUTO 26004KT 9999 FEW010/// BKN030/// 15/14 Q1021 BLU
EHEH - Eindhoven Rnlafb, Netherlands
Distance from station: ENE 69km
Actualizado: 24/07/2024 02:25
Encoberto
Encoberto
 Vento de WSW
Vento: WSW 7 km/h
Temperatura: 16°C
Ponto de Orvalho: 14°C
Humidade: 88%
Barómetro: 1020 hPa
Clouds: Encoberto
Visibility: 10 km
Cloud details: Encoberto 1128 m
2024/07/24 00:25 EHEH 240025Z AUTO 25004KT 9999 OVC037 16/14 Q1020 BLU
 
EBBL - Kleine-Brogel(Ba, Belgium
Distance from station: E 74km
Actualizado: 24/07/2024 02:25
Encoberto
Encoberto
 Vento de WSW
Vento: WSW 7 km/h
Temperatura: 16°C
Ponto de Orvalho: 15°C
Humidade: 94%
Barómetro: 1021 hPa
Clouds: Encoberto
Visibility: 10 km
Cloud details: Encoberto 1006 m
2024/07/24 00:25 EBBL 240025Z AUTO 25004KT 9999 OVC033/// 16/15 Q1021 BLU
EHRD - Rotterdam Airpor, Netherlands
Distance from station: N 75km
Actualizado: 24/07/2024 02:25
Encoberto
Encoberto
 Vento de NW
Vento: NW 11 km/h
Temperatura: 17°C
Ponto de Orvalho: 15°C
Humidade: 88%
Barómetro: 1020 hPa
Clouds: Encoberto
Visibility: 10 km
Cloud details: Parcialmente nublado 366 m
Muito nublado 427 m
Encoberto 518 m
2024/07/24 00:25 EHRD 240025Z AUTO 32006KT 270V020 9999 SCT012 BKN014 OVC017 17/15 Q1020 TEMPO SCT014 BKN025
 
EHSC - Goeree Le Sea, Netherlands
Distance from station: NW 89km
Actualizado: 24/07/2024 02:25

 Vento de NNW
Vento: NNW 30 km/h
Temperatura: 17°C
Ponto de Orvalho: 14°C
Humidade: 83%
Barómetro: 1021 hPa
Visibility: 10 km
2024/07/24 00:25 EHSC 240025Z AUTO 33016KT 9999 ///////// 17/14 Q1021 W18/H13
EBCI - Charleroi/Gossel, Belgium
Distance from station: S 90km
Actualizado: 24/07/2024 02:50
Muito nublado
Muito nublado
 Vento de W
Vento: W 7 km/h
Temperatura: 14°C
Ponto de Orvalho: 13°C
Humidade: 94%
Barómetro: 1022 hPa
Clouds: Muito nublado
Visibility: 10 km
Cloud details: Muito nublado 762 m
2024/07/24 00:50 EBCI 240050Z 28004KT 240V310 9999 BKN025 14/13 Q1022 NOSIG
 
EBCV - Chievres Ab, Belgium
Distance from station: SSW 90km
Actualizado: 24/07/2024 02:25
Muito nublado
Muito nublado
 Vento de W
Vento: W 7 km/h
Temperatura: 14°C
Ponto de Orvalho: 13°C
Humidade: 94%
Barómetro: 1022 hPa
Clouds: Muito nublado
Visibility: 9 km
Cloud details: Few Clouds 2896 m
Muito nublado 3353 m
Muito nublado 3658 m
2024/07/24 00:25 EBCV 240025Z AUTO 28004KT 9000 FEW095/// BKN110/// BKN120/// 14/13 Q1022 BLU
EHVK - Volkel Rnlafb, Netherlands
Distance from station: ENE 97km
Actualizado: 24/07/2024 02:25
Encoberto
Encoberto
 Vento de WSW
Vento: WSW 9 km/h
Temperatura: 15°C
Ponto de Orvalho: 14°C
Humidade: 94%
Barómetro: 1020 hPa
Clouds: Encoberto
Visibility: 10 km
Cloud details: Encoberto 8230 m
2024/07/24 00:25 EHVK 240025Z AUTO 25005KT 9999 OVC270 15/14 Q1020 BLU
 
EBLG - Bierset/Liege (c, Belgium
Distance from station: SE 102km
Actualizado: 24/07/2024 02:50
Muito nublado
Muito nublado
 Vento de WNW
Vento: WNW 7 km/h
Temperatura: 15°C
Ponto de Orvalho: 14°C
Humidade: 94%
Barómetro: 1021 hPa
Clouds: Muito nublado
Visibility: 10 km
Cloud details: Few Clouds 274 m
Muito nublado 792 m
2024/07/24 00:50 EBLG 240050Z 29004KT 9999 FEW009 BKN026 15/14 Q1021 TEMPO BKN009
EHBK - Zuid-Limburg/Bee, Netherlands
Distance from station: ESE 102km
Actualizado: 24/07/2024 02:25
Encoberto
Encoberto
 Vento de W
Vento: W 7 km/h
Temperatura: 16°C
Ponto de Orvalho: 13°C
Humidade: 83%
Barómetro: 1021 hPa
Clouds: Encoberto
Visibility: 10 km
Cloud details: Muito nublado 671 m
Encoberto 762 m
2024/07/24 00:25 EHBK 240025Z AUTO 28004KT 230V320 9999 BKN022/// OVC025/// 16/13 Q1021
 
EBOS - Oostende Airport, Belgium
Distance from station: W 108km
Actualizado: 24/07/2024 02:50
Parcialmente nublado
Parcialmente nublado
 Vento de NNW
Vento: NNW 7 km/h
Temperatura: 16°C
Ponto de Orvalho: 13°C
Humidade: 83%
Barómetro: 1022 hPa
Clouds: Parcialmente nublado
Visibility: 10 km
Cloud details: Parcialmente nublado 457 m
Parcialmente nublado 610 m
2024/07/24 00:50 EBOS 240050Z 33004KT 290V350 9999 SCT015 SCT020 16/13 Q1022 NOSIG
EHSA - Euro Platform, Netherlands
Distance from station: NW 112km
Actualizado: 24/07/2024 02:25

 Vento de NW
Vento: NW 26 km/h
Temperatura: 17°C
Ponto de Orvalho: 14°C
Humidade: 83%
Barómetro: 1021 hPa
Visibility: 10 km
2024/07/24 00:25 EHSA 240025Z AUTO 32014KT 9999 ///////// 17/14 Q1021 W18/H12
 
EHAM - Amsterdam/Schiph, Netherlands
Distance from station: NNE 118km
Actualizado: 24/07/2024 02:25
Parcialmente nublado
Parcialmente nublado
 Vento de NNW
Vento: NNW 17 km/h
Temperatura: 17°C
Ponto de Orvalho: 15°C
Humidade: 88%
Barómetro: 1020 hPa
Clouds: Parcialmente nublado
Visibility: 10 km
Cloud details: Few Clouds 244 m
Parcialmente nublado 1097 m
2024/07/24 00:25 EHAM 240025Z 33009KT 9999 FEW008 SCT036 17/15 Q1020 NOSIG
ETNG - Geilenkirchen(Na, Germany
Distance from station: ESE 118km
Actualizado: 24/07/2024 02:50
Muito nublado
Muito nublado
 Vento de W
Vento: W 9 km/h
Temperatura: 16°C
Ponto de Orvalho: 13°C
Humidade: 83%
Barómetro: 1020 hPa
Clouds: Muito nublado
Visibility: 10 km
Cloud details: Muito nublado 823 m
2024/07/24 00:50 ETNG 240050Z 28005KT 9999 BKN027 16/13 Q1020